Time;durP1;ratioP1;P1;durP2;ratioP2;P2;SDS_P1;SDS_P2;PMS_P1;PMS_P2;Temp;Humidity;BMP_temperature;BMP_pressure;BME280_temperature;BME280_humidity;BME280_pressure;Samples;Min_cycle;Max_cycle;Signal;HPM_P1;HPM_P2
2023/01/11 06:00:12;;;;;;;0.90;0.60;;;8.90;97.20;;;;;;1714306;28;20675;-70
2023/01/11 06:01:05;;;;;;;0.70;0.60;;;8.90;97.20;;;;;;1714391;28;20201;-70
2023/01/11 06:01:57;;;;;;;0.70;0.50;;;8.90;97.20;;;;;;1714370;28;20285;-69
2023/01/11 06:02:48;;;;;;;0.70;0.60;;;8.90;97.20;;;;;;1714432;28;20206;-68
2023/01/11 06:03:40;;;;;;;1.10;0.50;;;8.90;97.20;;;;;;1714403;28;20205;-70
2023/01/11 06:04:31;;;;;;;0.85;0.50;;;8.90;97.20;;;;;;1714426;28;20206;-69
2023/01/11 06:05:22;;;;;;;1.48;0.60;;;8.90;97.20;;;;;;1714368;28;20240;-69
2023/01/11 06:06:15;;;;;;;1.10;0.50;;;8.90;97.20;;;;;;1714368;28;21021;-69
2023/01/11 06:07:08;;;;;;;0.90;0.60;;;8.90;97.20;;;;;;1714036;28;20205;-69
2023/01/11 06:07:59;;;;;;;0.80;0.57;;;8.90;97.20;;;;;;1714217;28;20217;-69
2023/01/11 06:08:51;;;;;;;0.90;0.70;;;8.90;97.20;;;;;;1713981;28;20205;-69
2023/01/11 06:09:41;;;;;;;3.33;0.93;;;8.90;97.20;;;;;;1714198;28;20237;-69
2023/01/11 06:10:34;;;;;;;1.20;0.60;;;8.90;97.20;;;;;;1714151;28;20224;-70
2023/01/11 06:11:24;;;;;;;1.63;0.60;;;8.80;97.20;;;;;;1714249;28;20205;-70
2023/01/11 06:12:16;;;;;;;0.60;0.50;;;8.90;97.20;;;;;;1714312;28;20206;-69
2023/01/11 06:13:25;;;;;;;2.10;0.60;;;8.80;97.20;;;;;;1714353;28;20667;-69
2023/01/11 06:14:17;;;;;;;1.70;0.57;;;8.80;97.20;;;;;;1714321;28;20570;-70
2023/01/11 06:15:10;;;;;;;0.70;0.60;;;8.80;97.20;;;;;;1714292;28;20202;-68
2023/01/11 06:16:03;;;;;;;0.80;0.60;;;8.80;97.20;;;;;;1714075;28;20212;-70
2023/01/11 06:16:55;;;;;;;3.58;0.50;;;8.80;97.20;;;;;;1714040;28;20294;-70
2023/01/11 06:17:47;;;;;;;0.80;0.60;;;8.80;97.20;;;;;;1714275;28;20210;-68
2023/01/11 06:18:39;;;;;;;2.08;1.33;;;8.80;97.20;;;;;;1713664;28;20213;-69
2023/01/11 06:19:30;;;;;;;0.70;0.60;;;8.80;97.20;;;;;;1714306;28;20599;-68
2023/01/11 06:20:21;;;;;;;0.80;0.70;;;8.80;97.20;;;;;;1713968;28;20214;-70
2023/01/11 06:21:14;;;;;;;2.10;0.80;;;8.70;97.20;;;;;;1714285;28;20233;-69
2023/01/11 06:22:04;;;;;;;1.65;0.60;;;8.80;97.20;;;;;;1714165;28;20581;-69
2023/01/11 06:22:56;;;;;;;0.90;0.60;;;8.80;97.20;;;;;;1714255;28;20241;-69
2023/01/11 06:23:49;;;;;;;0.77;0.52;;;8.70;97.20;;;;;;1713850;28;20208;-69
2023/01/11 06:24:41;;;;;;;0.90;0.60;;;8.70;97.20;;;;;;1714118;28;20293;-69
2023/01/11 06:25:36;;;;;;;0.80;0.63;;;8.70;97.20;;;;;;1713671;28;20209;-69
2023/01/11 06:26:27;;;;;;;1.00;0.70;;;8.70;97.20;;;;;;1714416;28;20190;-70
2023/01/11 06:27:18;;;;;;;1.55;0.60;;;8.80;97.20;;;;;;1713602;28;20220;-69
2023/01/11 06:28:10;;;;;;;1.27;0.60;;;8.70;97.20;;;;;;1714365;28;20224;-70
2023/01/11 06:29:01;;;;;;;1.15;0.60;;;8.70;97.20;;;;;;1713663;28;20205;-70
2023/01/11 06:29:52;;;;;;;0.70;0.60;;;8.70;97.20;;;;;;1713797;28;20192;-70
2023/01/11 06:30:50;;;;;;;0.80;0.60;;;8.80;97.20;;;;;;1712916;28;20244;-70
2023/01/11 06:31:42;;;;;;;0.93;0.50;;;8.70;97.20;;;;;;1713430;28;20333;-70
2023/01/11 06:32:33;;;;;;;1.15;0.50;;;8.80;97.20;;;;;;1714247;28;20217;-69
2023/01/11 06:33:26;;;;;;;1.50;0.60;;;8.70;97.20;;;;;;1714072;28;20214;-70
2023/01/11 06:34:17;;;;;;;0.90;0.60;;;8.80;97.20;;;;;;1714179;28;20206;-70
2023/01/11 06:35:09;;;;;;;1.13;0.60;;;8.80;97.20;;;;;;1714194;28;20285;-69
2023/01/11 06:36:03;;;;;;;1.05;0.60;;;8.80;97.20;;;;;;1714085;28;20209;-70
2023/01/11 06:36:55;;;;;;;1.08;0.60;;;8.80;97.20;;;;;;1714003;28;20210;-70
2023/01/11 06:37:45;;;;;;;1.00;0.70;;;8.80;97.20;;;;;;1714173;28;20229;-70
2023/01/11 06:38:38;;;;;;;0.90;0.67;;;8.80;97.20;;;;;;1713578;28;20221;-69
2023/01/11 06:39:28;;;;;;;1.58;0.90;;;8.80;97.20;;;;;;1714211;28;20205;-69
2023/01/11 06:40:20;;;;;;;1.93;0.73;;;8.80;97.20;;;;;;1711137;28;20206;-69
2023/01/11 06:41:12;;;;;;;1.98;0.70;;;8.80;97.20;;;;;;1714203;28;20241;-69
2023/01/11 06:42:04;;;;;;;0.80;0.60;;;8.80;97.20;;;;;;1713675;28;20726;-69
2023/01/11 06:42:54;;;;;;;0.80;0.60;;;8.80;97.20;;;;;;1713930;28;20198;-69
2023/01/11 06:43:46;;;;;;;0.90;0.50;;;8.80;97.20;;;;;;1713290;28;20194;-69
2023/01/11 06:44:37;;;;;;;0.90;0.70;;;8.80;97.20;;;;;;1713677;28;20198;-69
2023/01/11 06:45:28;;;;;;;1.10;0.60;;;8.80;97.20;;;;;;1713858;28;20708;-69
2023/01/11 06:46:22;;;;;;;1.20;0.60;;;8.80;97.20;;;;;;1713834;28;20257;-69
2023/01/11 06:47:12;;;;;;;1.55;0.75;;;8.80;97.20;;;;;;1713845;28;20194;-69
2023/01/11 06:48:05;;;;;;;0.70;0.70;;;8.80;97.20;;;;;;1714002;28;20202;-69
2023/01/11 06:48:55;;;;;;;1.42;0.70;;;8.80;97.20;;;;;;1713633;28;20213;-70
2023/01/11 06:49:47;;;;;;;1.10;0.70;;;8.80;97.20;;;;;;1714045;28;20212;-69
2023/01/11 06:50:38;;;;;;;1.00;0.70;;;8.80;97.20;;;;;;1713838;28;20253;-70
2023/01/11 06:51:29;;;;;;;2.03;0.60;;;8.80;97.20;;;;;;1713882;28;20200;-69
2023/01/11 06:52:20;;;;;;;1.33;0.60;;;8.80;97.20;;;;;;1714067;28;20691;-70
2023/01/11 06:53:12;;;;;;;0.90;0.60;;;8.80;97.20;;;;;;1714183;28;20644;-69
2023/01/11 06:54:03;;;;;;;1.42;0.70;;;8.80;97.20;;;;;;1714053;28;20208;-70
2023/01/11 06:54:54;;;;;;;0.80;0.50;;;8.80;97.20;;;;;;1714082;28;20209;-70
2023/01/11 06:55:49;;;;;;;1.10;0.80;;;8.80;97.20;;;;;;1714008;28;20212;-70
2023/01/11 06:56:40;;;;;;;0.70;0.60;;;8.80;97.20;;;;;;1713714;28;20218;-70
2023/01/11 06:57:32;;;;;;;5.30;0.77;;;8.80;97.20;;;;;;1713870;28;20202;-69
2023/01/11 06:58:24;;;;;;;1.23;0.77;;;8.80;97.20;;;;;;1713906;28;20206;-70
2023/01/11 06:59:16;;;;;;;1.00;0.77;;;8.80;97.20;;;;;;1713265;28;20198;-70
2023/01/11 07:00:08;;;;;;;1.05;0.80;;;8.80;97.20;;;;;;1713944;28;20559;-70
2023/01/11 07:01:00;;;;;;;2.03;1.00;;;8.80;97.20;;;;;;1713868;28;20222;-69
2023/01/11 07:01:52;;;;;;;1.80;1.00;;;8.80;97.20;;;;;;1714162;28;20238;-70
2023/01/11 07:02:43;;;;;;;1.33;0.80;;;8.80;97.20;;;;;;1713936;28;20664;-70
2023/01/11 07:03:35;;;;;;;1.80;1.10;;;8.90;97.20;;;;;;1714069;28;20206;-70
2023/01/11 07:04:26;;;;;;;2.10;0.70;;;8.90;97.20;;;;;;1713933;28;20672;-70
2023/01/11 07:05:18;;;;;;;1.07;0.83;;;8.90;97.20;;;;;;1714027;28;20570;-70
2023/01/11 07:06:08;;;;;;;0.88;0.70;;;8.90;97.20;;;;;;1711439;28;20198;-69
2023/01/11 07:07:00;;;;;;;1.43;0.60;;;8.90;97.20;;;;;;1707132;28;20194;-69
2023/01/11 07:07:51;;;;;;;0.70;0.50;;;8.90;97.20;;;;;;1706876;28;20214;-70
2023/01/11 07:08:43;;;;;;;1.50;0.90;;;8.90;97.20;;;;;;1713069;28;20955;-70
2023/01/11 07:09:33;;;;;;;2.22;0.80;;;8.90;97.20;;;;;;1714029;28;20210;-69
2023/01/11 07:10:25;;;;;;;1.10;0.60;;;8.90;97.20;;;;;;1713720;28;20209;-70
2023/01/11 07:11:17;;;;;;;1.65;0.75;;;9.00;97.20;;;;;;1714008;28;20213;-71
2023/01/11 07:12:08;;;;;;;0.80;0.70;;;9.00;97.20;;;;;;1714001;28;20206;-69
2023/01/11 07:12:59;;;;;;;0.90;0.70;;;9.00;97.20;;;;;;1713915;28;20205;-70
2023/01/11 07:13:51;;;;;;;1.00;0.80;;;9.00;97.20;;;;;;1713984;28;20594;-70
2023/01/11 07:14:42;;;;;;;0.80;0.68;;;9.00;97.20;;;;;;1713929;28;20210;-69
2023/01/11 07:15:34;;;;;;;0.90;0.70;;;9.00;97.20;;;;;;1714011;28;20198;-70
2023/01/11 07:16:24;;;;;;;0.95;0.60;;;9.00;97.20;;;;;;1713760;28;20205;-70
2023/01/11 07:17:17;;;;;;;0.90;0.60;;;9.00;97.20;;;;;;1712578;28;20214;-70
2023/01/11 07:18:08;;;;;;;0.88;0.75;;;9.00;97.20;;;;;;1713870;28;20213;-69
2023/01/11 07:19:00;;;;;;;1.00;0.70;;;9.00;97.20;;;;;;1713347;28;20208;-69
2023/01/11 07:19:51;;;;;;;0.80;0.60;;;9.00;97.20;;;;;;1713844;28;20622;-69
2023/01/11 07:20:42;;;;;;;1.50;0.80;;;9.00;97.20;;;;;;1713777;28;20638;-69
2023/01/11 07:21:33;;;;;;;1.23;1.00;;;9.00;97.20;;;;;;1713899;28;20209;-70
2023/01/11 07:22:25;;;;;;;0.80;0.70;;;9.00;97.20;;;;;;1713743;28;20202;-70
2023/01/11 07:23:16;;;;;;;1.42;0.60;;;9.00;97.20;;;;;;1714042;28;20259;-70
2023/01/11 07:24:07;;;;;;;1.10;0.50;;;9.00;97.20;;;;;;1713886;28;20205;-71
2023/01/11 07:24:58;;;;;;;0.90;0.57;;;9.00;97.20;;;;;;1713930;28;20217;-70
2023/01/11 07:25:50;;;;;;;1.67;0.77;;;9.00;97.20;;;;;;1713973;28;20201;-70
2023/01/11 07:26:40;;;;;;;1.83;0.80;;;9.00;97.20;;;;;;1713626;28;20256;-68
2023/01/11 07:27:32;;;;;;;1.00;0.67;;;9.00;97.20;;;;;;1713938;28;20202;-69
2023/01/11 07:28:23;;;;;;;0.70;0.60;;;9.00;97.20;;;;;;1713830;28;20237;-69
2023/01/11 07:29:15;;;;;;;0.90;0.70;;;9.00;97.20;;;;;;1713508;28;20216;-69
2023/01/11 07:30:07;;;;;;;1.00;0.85;;;9.00;97.20;;;;;;1713639;28;20206;-70
2023/01/11 07:30:58;;;;;;;1.33;0.60;;;9.00;97.20;;;;;;1713962;28;20236;-70
2023/01/11 07:31:49;;;;;;;1.60;0.80;;;9.00;97.20;;;;;;1713972;28;20209;-70
2023/01/11 07:32:42;;;;;;;0.70;0.50;;;9.10;97.20;;;;;;1713839;28;20212;-70
2023/01/11 07:33:34;;;;;;;0.90;0.60;;;9.10;97.20;;;;;;1713916;28;20206;-70
2023/01/11 07:34:25;;;;;;;1.10;1.00;;;9.10;97.20;;;;;;1713815;28;20206;-70
2023/01/11 07:35:16;;;;;;;0.80;0.70;;;9.10;97.20;;;;;;1713845;28;20208;-69
2023/01/11 07:36:09;;;;;;;0.77;0.65;;;9.10;97.20;;;;;;1713805;28;20214;-69
2023/01/11 07:36:59;;;;;;;0.88;0.70;;;9.20;97.20;;;;;;1713673;28;20261;-70
2023/01/11 07:37:51;;;;;;;0.80;0.60;;;9.20;97.20;;;;;;1713583;28;20200;-69
2023/01/11 07:38:42;;;;;;;1.00;0.60;;;9.20;97.20;;;;;;1713249;28;20246;-69
2023/01/11 07:39:33;;;;;;;1.00;0.60;;;9.20;97.20;;;;;;1713903;28;20285;-69
2023/01/11 07:40:24;;;;;;;1.65;0.65;;;9.30;97.20;;;;;;1713645;28;20232;-69
2023/01/11 07:43:34;;;;;;;1.70;0.70;;;9.40;97.20;;;;;;1713893;28;20233;-70
2023/01/11 07:44:25;;;;;;;1.15;0.80;;;9.40;97.20;;;;;;1713846;28;20345;-69
2023/01/11 07:45:17;;;;;;;0.80;0.60;;;9.40;97.20;;;;;;1713786;28;20235;-69
2023/01/11 07:46:07;;;;;;;3.35;0.80;;;9.40;97.20;;;;;;1713764;28;20205;-70
2023/01/11 07:46:59;;;;;;;0.80;0.70;;;9.50;97.20;;;;;;1713662;28;20201;-70
2023/01/11 07:47:51;;;;;;;1.83;0.60;;;9.50;97.20;;;;;;1713736;28;20213;-69
2023/01/11 07:48:43;;;;;;;0.70;0.50;;;9.50;97.20;;;;;;1712737;28;20257;-70
2023/01/11 07:49:34;;;;;;;1.38;0.60;;;9.50;97.20;;;;;;1713465;28;20216;-70
2023/01/11 07:50:25;;;;;;;1.10;0.60;;;9.50;97.20;;;;;;1713563;28;20212;-70
2023/01/11 07:51:19;;;;;;;1.38;0.90;;;9.50;97.20;;;;;;1713813;28;20202;-70
2023/01/11 07:52:10;;;;;;;0.90;0.65;;;9.50;97.20;;;;;;1713671;28;20205;-70
2023/01/11 07:53:01;;;;;;;2.33;0.80;;;9.60;97.20;;;;;;1713724;28;20236;-69
2023/01/11 07:53:52;;;;;;;1.00;0.60;;;9.60;97.20;;;;;;1713488;28;20210;-70
2023/01/11 07:54:44;;;;;;;0.90;0.60;;;9.60;97.20;;;;;;1710056;28;20202;-70
2023/01/11 07:55:35;;;;;;;1.00;0.70;;;9.60;97.20;;;;;;1710316;28;20206;-69
2023/01/11 07:56:27;;;;;;;1.23;0.60;;;9.60;97.20;;;;;;1713774;28;20197;-70
2023/01/11 07:57:17;;;;;;;0.90;0.60;;;9.60;97.20;;;;;;1713425;28;20229;-69
2023/01/11 07:58:11;;;;;;;1.70;0.70;;;9.70;97.20;;;;;;1713767;28;20237;-70
2023/01/11 07:59:02;;;;;;;1.73;0.60;;;9.70;97.20;;;;;;1713300;28;20684;-70
2023/01/11 07:59:54;;;;;;;1.30;0.70;;;9.70;97.20;;;;;;1713611;28;20573;-70
2023/01/11 08:00:45;;;;;;;0.82;0.60;;;9.70;97.20;;;;;;1713157;28;20844;-70
2023/01/11 08:01:36;;;;;;;1.00;0.60;;;9.70;97.20;;;;;;1713617;28;20197;-69
2023/01/11 08:02:27;;;;;;;1.10;0.60;;;9.70;97.20;;;;;;1713367;28;20263;-69
2023/01/11 08:03:20;;;;;;;1.27;0.60;;;9.70;97.20;;;;;;1713621;28;20202;-71
2023/01/11 08:04:13;;;;;;;1.30;0.80;;;9.80;97.20;;;;;;1713892;28;20221;-70
2023/01/11 08:05:05;;;;;;;1.20;0.70;;;9.80;97.20;;;;;;1713651;28;20722;-69
2023/01/11 08:05:56;;;;;;;0.77;0.57;;;9.70;97.20;;;;;;1713667;28;20916;-69
2023/01/11 08:06:47;;;;;;;1.27;0.77;;;9.80;97.20;;;;;;1713433;28;20664;-70
2023/01/11 08:07:40;;;;;;;1.45;0.82;;;9.80;97.20;;;;;;1713743;28;20280;-70
2023/01/11 08:08:32;;;;;;;1.05;0.70;;;9.80;97.20;;;;;;1713282;28;20249;-69
2023/01/11 08:09:23;;;;;;;1.00;0.80;;;9.80;97.20;;;;;;1712112;28;20224;-70
2023/01/11 08:10:15;;;;;;;0.90;0.70;;;9.90;97.20;;;;;;1706914;28;20282;-69
2023/01/11 08:14:40;;;;;;;2.03;0.60;;;9.90;97.20;;;;;;1711773;28;20258;-70
2023/01/11 08:15:32;;;;;;;1.08;0.70;;;9.90;97.20;;;;;;1713861;28;20553;-70
2023/01/11 08:16:23;;;;;;;1.40;0.60;;;10.00;97.20;;;;;;1713815;28;20670;-69
2023/01/11 08:17:16;;;;;;;1.30;0.80;;;10.00;97.20;;;;;;1713613;28;20750;-69
2023/01/11 08:18:07;;;;;;;0.77;0.60;;;10.00;97.20;;;;;;1712777;28;20574;-69
2023/01/11 08:19:00;;;;;;;0.73;0.60;;;10.00;97.20;;;;;;1706786;28;20652;-69
2023/01/11 08:19:51;;;;;;;1.27;0.60;;;10.00;97.20;;;;;;1710323;28;20457;-69
2023/01/11 08:20:44;;;;;;;1.10;0.60;;;10.00;97.20;;;;;;1707485;28;20230;-69
2023/01/11 08:21:35;;;;;;;1.13;0.55;;;10.00;97.20;;;;;;1708177;28;20485;-70
2023/01/11 08:22:26;;;;;;;0.83;0.73;;;10.00;97.20;;;;;;1709166;28;20213;-70
2023/01/11 08:23:17;;;;;;;0.80;0.70;;;10.00;97.20;;;;;;1714858;28;20206;-70
2023/01/11 08:24:09;;;;;;;1.13;0.63;;;10.10;97.20;;;;;;1714952;28;20201;-70
2023/01/11 08:25:01;;;;;;;0.70;0.60;;;10.10;97.20;;;;;;1715075;28;20206;-70
2023/01/11 08:25:56;;;;;;;0.90;0.70;;;10.10;97.20;;;;;;1714988;28;20201;-70
2023/01/11 08:26:48;;;;;;;1.00;0.50;;;10.10;97.20;;;;;;1714664;28;20719;-71
2023/01/11 08:27:38;;;;;;;2.78;0.70;;;10.10;97.20;;;;;;1715061;28;20205;-71
2023/01/11 08:28:30;;;;;;;1.73;0.80;;;10.10;97.20;;;;;;1714713;28;20241;-70
2023/01/11 08:29:21;;;;;;;1.00;0.60;;;10.20;97.20;;;;;;1712729;28;20201;-71
2023/01/11 08:30:13;;;;;;;1.33;0.60;;;10.20;97.20;;;;;;1714073;28;20211;-70
2023/01/11 08:31:06;;;;;;;0.70;0.60;;;10.20;97.20;;;;;;1714659;28;20457;-70
2023/01/11 08:31:59;;;;;;;1.00;0.80;;;10.20;97.20;;;;;;1715012;28;20206;-70
2023/01/11 08:32:50;;;;;;;2.15;0.60;;;10.20;97.20;;;;;;1715005;28;20656;-70
2023/01/11 08:33:41;;;;;;;1.97;0.70;;;10.20;97.20;;;;;;1711257;28;20602;-69
2023/01/11 08:34:34;;;;;;;1.20;0.70;;;10.30;97.20;;;;;;1708315;28;20668;-70
2023/01/11 08:35:26;;;;;;;0.90;0.63;;;10.30;97.20;;;;;;1708287;28;20214;-70
2023/01/11 08:36:17;;;;;;;1.00;0.70;;;10.30;97.20;;;;;;1708150;28;20230;-70
2023/01/11 08:37:08;;;;;;;0.90;0.67;;;10.30;97.20;;;;;;1707990;28;20227;-70
2023/01/11 08:37:59;;;;;;;1.25;0.73;;;10.30;97.20;;;;;;1707875;28;20226;-70
2023/01/11 08:38:55;;;;;;;2.50;0.70;;;10.30;97.20;;;;;;1708096;28;20195;-69
2023/01/11 08:39:47;;;;;;;4.35;0.88;;;10.30;97.20;;;;;;1708276;28;20253;-70
2023/01/11 08:40:40;;;;;;;2.08;0.77;;;10.30;97.20;;;;;;1710756;28;20280;-70
2023/01/11 08:41:31;;;;;;;1.05;0.90;;;10.30;97.20;;;;;;1714719;28;20206;-70
2023/01/11 08:42:23;;;;;;;0.93;0.80;;;10.30;97.20;;;;;;1714669;28;20675;-70
2023/01/11 08:43:13;;;;;;;0.90;0.70;;;10.30;97.20;;;;;;1714966;28;20209;-70
2023/01/11 08:44:05;;;;;;;1.20;0.90;;;10.30;97.20;;;;;;1708659;28;20205;-70
2023/01/11 08:44:56;;;;;;;0.70;0.57;;;10.30;97.20;;;;;;1708238;28;20308;-70
2023/01/11 08:45:49;;;;;;;3.00;0.70;;;10.30;97.20;;;;;;1707989;28;20198;-70
2023/01/11 08:46:40;;;;;;;2.30;0.90;;;10.30;97.20;;;;;;1707794;28;20236;-70
2023/01/11 08:47:32;;;;;;;0.80;0.60;;;10.30;97.20;;;;;;1708291;28;20213;-70
2023/01/11 08:48:23;;;;;;;1.00;0.90;;;10.40;97.20;;;;;;1708320;28;20210;-69
2023/01/11 08:49:14;;;;;;;2.30;0.90;;;10.40;97.20;;;;;;1714267;28;20237;-70
2023/01/11 08:50:09;;;;;;;1.50;0.80;;;10.30;97.20;;;;;;1714724;28;20582;-70
2023/01/11 08:51:00;;;;;;;1.05;0.70;;;10.30;97.20;;;;;;1714648;28;20284;-71
2023/01/11 08:51:52;;;;;;;1.00;0.70;;;10.30;97.20;;;;;;1714779;28;20202;-69
2023/01/11 08:52:43;;;;;;;0.98;0.68;;;10.30;97.20;;;;;;1714077;28;20225;-70
2023/01/11 08:53:35;;;;;;;1.20;0.77;;;10.30;97.20;;;;;;1714493;28;20210;-70
2023/01/11 08:54:25;;;;;;;1.23;0.63;;;10.30;97.20;;;;;;1714702;28;20449;-70
2023/01/11 08:55:17;;;;;;;0.97;0.70;;;10.40;97.20;;;;;;1714760;28;20212;-69
2023/01/11 08:56:08;;;;;;;1.60;0.70;;;10.40;97.20;;;;;;1714731;28;20573;-70
2023/01/11 08:57:00;;;;;;;0.90;0.70;;;10.40;97.20;;;;;;1714469;28;20609;-69
2023/01/11 08:57:51;;;;;;;0.85;0.60;;;10.40;97.20;;;;;;1714891;28;20586;-70
2023/01/11 08:58:42;;;;;;;1.23;0.83;;;10.40;97.20;;;;;;1714044;28;20213;-71
2023/01/11 08:59:33;;;;;;;0.80;0.68;;;10.40;97.20;;;;;;1714893;28;20456;-70
2023/01/11 09:00:25;;;;;;;1.47;0.90;;;10.40;97.20;;;;;;1714141;28;20213;-70
2023/01/11 09:01:16;;;;;;;1.42;0.90;;;10.40;97.20;;;;;;1714115;28;20978;-70
2023/01/11 09:02:09;;;;;;;0.93;0.80;;;10.40;97.20;;;;;;1714487;28;20566;-70
2023/01/11 09:02:59;;;;;;;1.00;0.80;;;10.40;97.20;;;;;;1714811;28;20827;-71
2023/01/11 09:03:51;;;;;;;0.90;0.80;;;10.40;97.20;;;;;;1714458;28;20568;-69
2023/01/11 09:04:42;;;;;;;0.80;0.70;;;10.40;97.20;;;;;;1714655;28;20485;-70
2023/01/11 09:05:36;;;;;;;1.47;0.80;;;10.40;97.20;;;;;;1714943;28;20208;-69
2023/01/11 09:06:26;;;;;;;0.80;0.70;;;10.50;97.20;;;;;;1714650;28;20198;-70
2023/01/11 09:07:18;;;;;;;0.90;0.60;;;10.50;97.20;;;;;;1714475;28;20660;-70
2023/01/11 09:08:10;;;;;;;0.80;0.70;;;10.50;97.20;;;;;;1714685;28;20208;-70
2023/01/11 09:09:01;;;;;;;0.90;0.70;;;10.50;97.20;;;;;;1709481;28;20195;-70
2023/01/11 09:09:52;;;;;;;0.90;0.70;;;10.50;97.20;;;;;;1708084;28;20210;-71
2023/01/11 09:10:44;;;;;;;1.83;0.83;;;10.50;97.20;;;;;;1708052;28;20215;-71
2023/01/11 09:11:52;;;;;;;0.77;0.68;;;10.50;97.20;;;;;;1707809;28;20207;-71
2023/01/11 09:12:44;;;;;;;1.00;0.60;;;10.50;97.20;;;;;;1707928;28;20203;-70
2023/01/11 09:13:35;;;;;;;1.00;0.80;;;10.60;97.20;;;;;;1708157;28;20273;-70
2023/01/11 09:14:28;;;;;;;1.73;1.00;;;10.60;97.20;;;;;;1708017;28;20210;-70
2023/01/11 09:15:19;;;;;;;0.80;0.60;;;10.60;97.20;;;;;;1708047;28;20203;-70
2023/01/11 09:16:10;;;;;;;0.90;0.70;;;10.60;97.20;;;;;;1708037;28;20199;-70
2023/01/11 09:17:03;;;;;;;0.90;0.75;;;10.60;97.20;;;;;;1707845;28;20214;-70
2023/01/11 09:17:54;;;;;;;2.25;0.90;;;10.60;97.20;;;;;;1708041;28;20213;-69
2023/01/11 09:18:45;;;;;;;1.17;0.80;;;10.60;97.20;;;;;;1707529;28;20202;-70
2023/01/11 09:19:36;;;;;;;0.90;0.70;;;10.60;97.20;;;;;;1707985;28;21013;-70
2023/01/11 09:20:28;;;;;;;1.47;0.87;;;10.60;97.20;;;;;;1707797;28;20543;-70
2023/01/11 09:21:20;;;;;;;1.13;0.85;;;10.70;97.20;;;;;;1707719;28;20245;-70
2023/01/11 09:22:12;;;;;;;1.00;0.70;;;10.70;97.20;;;;;;1707799;28;20214;-70
2023/01/11 09:23:03;;;;;;;1.45;0.82;;;10.70;97.20;;;;;;1708084;28;20691;-70
2023/01/11 09:23:55;;;;;;;2.30;0.75;;;10.70;97.20;;;;;;1708004;28;20582;-69
2023/01/11 09:24:46;;;;;;;1.40;1.00;;;10.70;97.20;;;;;;1708863;28;20207;-70
2023/01/11 09:25:37;;;;;;;1.92;0.80;;;10.70;97.20;;;;;;1714572;28;20217;-70
2023/01/11 09:26:29;;;;;;;0.97;0.87;;;10.70;97.20;;;;;;1714613;28;20193;-69
2023/01/11 09:27:21;;;;;;;0.90;0.70;;;10.70;97.20;;;;;;1714456;28;20613;-70
2023/01/11 09:28:11;;;;;;;1.98;0.80;;;10.70;97.20;;;;;;1714661;28;20202;-70
2023/01/11 09:29:03;;;;;;;1.40;0.70;;;10.70;97.20;;;;;;1713809;28;20186;-70
2023/01/11 09:29:55;;;;;;;1.27;0.80;;;10.70;97.20;;;;;;1712534;28;20216;-69
2023/01/11 09:30:46;;;;;;;0.90;0.60;;;10.70;97.20;;;;;;1713886;28;20735;-70
2023/01/11 09:31:37;;;;;;;0.90;0.70;;;10.70;97.20;;;;;;1714035;28;20570;-71
2023/01/11 09:32:28;;;;;;;0.95;0.60;;;10.70;97.20;;;;;;1714348;28;20202;-70
2023/01/11 09:33:20;;;;;;;1.23;0.90;;;10.70;97.20;;;;;;1714471;28;20209;-70
2023/01/11 09:34:12;;;;;;;2.20;0.60;;;10.70;97.20;;;;;;1714285;28;20198;-70
2023/01/11 09:35:04;;;;;;;1.17;0.70;;;10.70;97.20;;;;;;1714568;28;20196;-70
2023/01/11 09:35:57;;;;;;;1.25;0.60;;;10.70;97.20;;;;;;1714675;28;20202;-70
2023/01/11 09:36:50;;;;;;;1.30;0.80;;;10.70;97.20;;;;;;1714276;28;20656;-69
2023/01/11 09:37:44;;;;;;;1.50;0.73;;;10.70;97.20;;;;;;1714367;28;20260;-71
2023/01/11 09:38:38;;;;;;;1.58;0.88;;;10.70;97.20;;;;;;1713961;28;20269;-70
2023/01/11 09:39:30;;;;;;;1.00;0.70;;;10.70;97.20;;;;;;1708746;28;20203;-70
2023/01/11 09:40:28;;;;;;;1.20;0.80;;;10.70;97.20;;;;;;1707774;28;20202;-70
2023/01/11 09:41:38;;;;;;;1.40;0.80;;;10.70;97.20;;;;;;1710458;28;20194;-70
2023/01/11 09:42:35;;;;;;;1.10;0.80;;;10.80;97.20;;;;;;1714163;28;20195;-70
2023/01/11 09:43:29;;;;;;;2.58;1.27;;;10.80;97.20;;;;;;1714412;28;20336;-70
2023/01/11 09:44:25;;;;;;;0.95;0.77;;;10.80;97.20;;;;;;1714138;28;20286;-70
2023/01/11 09:45:20;;;;;;;1.42;0.60;;;10.80;97.20;;;;;;1714427;28;20570;-70
2023/01/11 09:46:12;;;;;;;0.80;0.63;;;10.80;97.20;;;;;;1714581;28;20586;-69
2023/01/11 09:47:14;;;;;;;2.08;0.80;;;10.80;97.20;;;;;;1714366;28;20202;-70
2023/01/11 09:48:14;;;;;;;0.80;0.70;;;10.80;97.20;;;;;;1714495;28;20202;-70
2023/01/11 09:49:10;;;;;;;1.10;0.70;;;10.80;97.20;;;;;;1711488;28;20352;-70
2023/01/11 09:50:06;;;;;;;0.80;0.80;;;10.80;97.20;;;;;;1713478;28;20198;-70
2023/01/11 09:50:57;;;;;;;0.70;0.55;;;10.80;97.20;;;;;;1713803;28;20222;-70
2023/01/11 09:51:51;;;;;;;1.60;0.90;;;10.80;97.20;;;;;;1714124;28;20293;-70
2023/01/11 09:52:46;;;;;;;1.00;0.70;;;10.80;97.20;;;;;;1713811;28;20449;-70
2023/01/11 09:53:39;;;;;;;1.42;0.82;;;10.90;97.20;;;;;;1713551;28;20204;-70
2023/01/11 09:54:31;;;;;;;1.38;0.70;;;10.90;97.20;;;;;;1714154;28;20222;-70
2023/01/11 09:55:31;;;;;;;0.95;0.70;;;10.90;97.20;;;;;;1714192;28;20293;-70
2023/01/11 09:56:27;;;;;;;1.00;0.73;;;10.90;97.20;;;;;;1714321;28;20210;-69
2023/01/11 09:57:29;;;;;;;1.52;0.80;;;10.90;97.20;;;;;;1713782;28;20201;-69
2023/01/11 09:58:41;;;;;;;0.90;0.65;;;10.90;97.20;;;;;;1714339;28;20194;-70
2023/01/11 09:59:45;;;;;;;0.95;0.60;;;10.90;97.20;;;;;;1707606;28;20230;-70
2023/01/11 10:00:49;;;;;;;1.38;0.65;;;11.00;97.20;;;;;;1707571;28;20598;-70
2023/01/11 10:01:48;;;;;;;1.20;0.60;;;11.00;97.20;;;;;;1707551;28;20194;-70
2023/01/11 10:02:52;;;;;;;0.98;0.70;;;11.00;97.20;;;;;;1707621;28;20827;-70
2023/01/11 10:04:20;;;;;;;0.93;0.77;;;11.00;97.20;;;;;;1707700;28;20692;-69
2023/01/11 10:05:28;;;;;;;1.77;0.90;;;11.00;97.20;;;;;;1707806;28;20572;-70
2023/01/11 10:06:27;;;;;;;1.35;0.73;;;11.00;97.20;;;;;;1707714;29;20183;-69
2023/01/11 10:07:48;;;;;;;1.00;0.90;;;11.00;97.20;;;;;;1707466;28;20228;-70
2023/01/11 10:09:02;;;;;;;1.92;0.95;;;11.00;97.20;;;;;;1707225;28;20221;-69
2023/01/11 10:10:06;;;;;;;1.13;0.70;;;11.00;97.20;;;;;;1707117;28;20209;-70
2023/01/11 10:11:05;;;;;;;1.42;0.90;;;11.00;97.20;;;;;;1707107;28;20223;-70
2023/01/11 10:12:08;;;;;;;1.75;0.68;;;11.00;97.20;;;;;;1707183;28;20592;-70
2023/01/11 10:13:10;;;;;;;1.38;0.70;;;11.00;97.20;;;;;;1707209;29;20194;-73
2023/01/11 10:14:10;;;;;;;1.00;0.60;;;11.00;97.20;;;;;;1710259;28;20205;-70
2023/01/11 10:15:12;;;;;;;0.80;0.60;;;11.00;97.20;;;;;;1707381;28;20234;-70
2023/01/11 10:16:08;;;;;;;0.82;0.60;;;11.00;97.20;;;;;;1710516;28;20269;-70
2023/01/11 10:17:06;;;;;;;1.15;0.70;;;11.00;97.20;;;;;;1714049;28;20221;-70
2023/01/11 10:18:16;;;;;;;0.88;0.60;;;11.00;97.20;;;;;;1710203;28;20221;-70
2023/01/11 10:19:15;;;;;;;0.80;0.60;;;11.00;97.20;;;;;;1713877;28;20190;-70
2023/01/11 10:20:19;;;;;;;0.82;0.50;;;11.00;97.20;;;;;;1714175;28;20198;-69
2023/01/11 10:21:16;;;;;;;0.90;0.60;;;11.00;97.20;;;;;;1713832;28;20202;-70
2023/01/11 10:22:14;;;;;;;0.80;0.57;;;11.00;97.20;;;;;;1714012;28;20194;-70
2023/01/11 10:23:23;;;;;;;1.17;0.70;;;11.00;97.20;;;;;;1714454;28;20190;-69
2023/01/11 10:24:24;;;;;;;0.82;0.68;;;11.00;97.20;;;;;;1714245;28;20624;-71
2023/01/11 10:25:23;;;;;;;0.80;0.60;;;11.10;97.20;;;;;;1714393;28;20197;-70
2023/01/11 10:26:26;;;;;;;0.80;0.60;;;11.10;97.20;;;;;;1714217;28;20189;-70
2023/01/11 10:27:21;;;;;;;1.20;0.95;;;11.10;97.20;;;;;;1713793;28;20252;-70
2023/01/11 10:28:22;;;;;;;1.52;0.70;;;11.10;97.20;;;;;;1714329;28;20179;-69
2023/01/11 10:29:28;;;;;;;0.75;0.63;;;11.10;97.20;;;;;;1713758;28;20230;-70
2023/01/11 10:30:44;;;;;;;2.20;1.15;;;11.10;97.20;;;;;;1713380;28;20194;-70
2023/01/11 10:31:53;;;;;;;1.00;0.60;;;11.10;97.20;;;;;;1713993;28;20894;-70
2023/01/11 10:32:53;;;;;;;1.45;0.80;;;11.10;97.20;;;;;;1709339;28;20574;-69
2023/01/11 10:34:03;;;;;;;0.80;0.50;;;11.10;97.20;;;;;;1707440;28;20197;-70
2023/01/11 10:35:16;;;;;;;1.10;0.73;;;11.10;97.20;;;;;;1707526;29;20549;-72
2023/01/11 10:36:29;;;;;;;1.33;0.60;;;11.10;97.20;;;;;;1707600;28;20187;-70
2023/01/11 10:37:39;;;;;;;1.50;0.85;;;11.10;97.20;;;;;;1707385;28;20627;-69
2023/01/11 10:38:56;;;;;;;0.80;0.60;;;11.10;97.20;;;;;;1707633;28;20656;-70
2023/01/11 10:40:17;;;;;;;0.88;0.70;;;11.20;97.20;;;;;;1707330;28;20206;-71
2023/01/11 10:41:20;;;;;;;1.10;0.80;;;11.20;97.20;;;;;;1707181;28;20629;-70
2023/01/11 10:42:21;;;;;;;1.33;0.73;;;11.20;97.20;;;;;;1707302;28;20187;-70
2023/01/11 10:43:19;;;;;;;0.75;0.60;;;11.20;97.20;;;;;;1707550;28;20195;-70
2023/01/11 10:44:22;;;;;;;0.75;0.60;;;11.20;97.20;;;;;;1707563;29;20182;-69
2023/01/11 10:45:16;;;;;;;0.90;0.60;;;11.20;97.20;;;;;;1707606;29;20195;-70
2023/01/11 10:46:12;;;;;;;1.20;0.70;;;11.20;97.20;;;;;;1706998;28;20631;-70
2023/01/11 10:47:11;;;;;;;0.98;0.70;;;11.20;97.20;;;;;;1712724;28;20186;-70
2023/01/11 10:48:06;;;;;;;0.85;0.70;;;11.20;97.20;;;;;;1713640;28;20202;-70
2023/01/11 10:49:08;;;;;;;3.00;0.65;;;11.20;97.20;;;;;;1710607;28;20202;-69